< < Back
Terminal Aerodrome Forecast


Current Version              Previous Versions:   1  2  3  4  5  6  7  8  9  

Terminal Aerodrome Forecast

032
FTAK31 PAJN 202300
TAFAHN
TAF
PAHN 202335Z 2100/2124 11010G18KT P6SM SCT060
     FM210300 VRB05KT P6SM FEW040 SCT100
     FM211500 32004KT P6SM SCT040 BKN080
     FM212100 13008KT P6SM BKN050
      AMD LTD TO CLD VIS AND WIND=

Latest METAR

990
SAUS70 KWBC 210200 RRA
MTRAHN
METAR KAHN 210151Z AUTO 06003KT 10SM CLR 13/05 A3017 RMK AO2 SLP216
T01280050


USA.gov is the U.S. government's official web portal to all federal, state and local government web resources and services.